Terminal Aerodrome Forecast
Issued by NWS Pueblo, CO

Home | Current Version | Previous Version | Text Only | Print | Product List | Glossary On
Versions: 1 2 3 4 5 6 7 8 9 10 11 12 13 14 15 16 17 18 19 20 21 22 23 24 25
000
FTUS45 KPUB 200545
TAFPUB
TAF
KPUB 200545Z 2006/2106 VRB06KT P6SM BKN200
     FM200800 32010KT P6SM VCSH SCT040 BKN100
     FM201000 VRB06KT P6SM VCSH OVC050
     FM201200 VRB06KT 3SM -SN BR OVC020
     FM201800 30010KT P6SM VCSH OVC030
     FM202300 33007KT P6SM OVC060=

USA.gov is the U.S. government's official web portal to all federal, state and local government web resources and services.